sensor_id;sensor_type;location;lat;lon;timestamp;temperature;humidity
57552;DHT22;43379;48.160;14.036;2023-08-31T00:02:06;16.20;99.90
57552;DHT22;43379;48.160;14.036;2023-08-31T00:04:32;16.20;99.90
57552;DHT22;43379;48.160;14.036;2023-08-31T00:06:58;16.10;99.90
57552;DHT22;43379;48.160;14.036;2023-08-31T00:09:24;16.10;99.90
57552;DHT22;43379;48.160;14.036;2023-08-31T00:11:50;16.10;99.90
57552;DHT22;43379;48.160;14.036;2023-08-31T00:14:16;16.10;99.90
57552;DHT22;43379;48.160;14.036;2023-08-31T00:16:42;16.20;99.90
57552;DHT22;43379;48.160;14.036;2023-08-31T00:19:08;16.10;99.90
57552;DHT22;43379;48.160;14.036;2023-08-31T00:21:34;16.10;99.90
57552;DHT22;43379;48.160;14.036;2023-08-31T00:23:59;16.10;99.90
57552;DHT22;43379;48.160;14.036;2023-08-31T00:26:25;16.10;99.90
57552;DHT22;43379;48.160;14.036;2023-08-31T00:28:52;16.20;99.90
57552;DHT22;43379;48.160;14.036;2023-08-31T00:31:17;16.10;99.90
57552;DHT22;43379;48.160;14.036;2023-08-31T00:33:43;16.00;99.90
57552;DHT22;43379;48.160;14.036;2023-08-31T00:36:08;16.00;99.90
57552;DHT22;43379;48.160;14.036;2023-08-31T00:38:34;16.00;99.90
57552;DHT22;43379;48.160;14.036;2023-08-31T00:41:01;16.00;99.90
57552;DHT22;43379;48.160;14.036;2023-08-31T00:43:27;16.00;99.90
57552;DHT22;43379;48.160;14.036;2023-08-31T00:45:56;16.00;99.90
57552;DHT22;43379;48.160;14.036;2023-08-31T00:48:24;15.90;99.90
57552;DHT22;43379;48.160;14.036;2023-08-31T00:50:50;15.90;99.90
57552;DHT22;43379;48.160;14.036;2023-08-31T00:53:17;15.90;99.90
57552;DHT22;43379;48.160;14.036;2023-08-31T00:55:46;15.90;99.90
57552;DHT22;43379;48.160;14.036;2023-08-31T00:58:13;15.80;99.90
57552;DHT22;43379;48.160;14.036;2023-08-31T01:03:39;15.80;99.90
57552;DHT22;43379;48.160;14.036;2023-08-31T01:09:16;15.80;99.90
57552;DHT22;43379;48.160;14.036;2023-08-31T01:12:18;15.80;99.90
57552;DHT22;43379;48.160;14.036;2023-08-31T01:14:43;15.70;99.90
57552;DHT22;43379;48.160;14.036;2023-08-31T01:17:12;15.80;99.90
57552;DHT22;43379;48.160;14.036;2023-08-31T01:19:51;15.80;99.90
57552;DHT22;43379;48.160;14.036;2023-08-31T01:22:38;15.80;99.90
57552;DHT22;43379;48.160;14.036;2023-08-31T01:25:06;15.80;99.90
57552;DHT22;43379;48.160;14.036;2023-08-31T01:27:35;15.80;99.90
57552;DHT22;43379;48.160;14.036;2023-08-31T01:30:01;15.80;99.90
57552;DHT22;43379;48.160;14.036;2023-08-31T01:32:28;15.80;99.90
57552;DHT22;43379;48.160;14.036;2023-08-31T01:34:54;15.80;99.90
57552;DHT22;43379;48.160;14.036;2023-08-31T01:37:43;15.80;99.90
57552;DHT22;43379;48.160;14.036;2023-08-31T01:40:18;15.70;99.90
57552;DHT22;43379;48.160;14.036;2023-08-31T01:42:46;15.70;99.90
57552;DHT22;43379;48.160;14.036;2023-08-31T01:45:15;15.60;99.90
57552;DHT22;43379;48.160;14.036;2023-08-31T01:47:42;15.60;99.90
57552;DHT22;43379;48.160;14.036;2023-08-31T01:50:08;15.60;99.90
57552;DHT22;43379;48.160;14.036;2023-08-31T01:52:34;15.60;99.90
57552;DHT22;43379;48.160;14.036;2023-08-31T01:55:00;15.60;99.90
57552;DHT22;43379;48.160;14.036;2023-08-31T01:57:25;15.60;99.90
57552;DHT22;43379;48.160;14.036;2023-08-31T01:59:51;15.60;99.90
57552;DHT22;43379;48.160;14.036;2023-08-31T02:02:17;15.60;99.90
57552;DHT22;43379;48.160;14.036;2023-08-31T02:04:43;15.60;99.90
57552;DHT22;43379;48.160;14.036;2023-08-31T02:07:09;15.60;99.90
57552;DHT22;43379;48.160;14.036;2023-08-31T02:09:34;15.60;99.90
57552;DHT22;43379;48.160;14.036;2023-08-31T02:12:00;15.60;99.90
57552;DHT22;43379;48.160;14.036;2023-08-31T02:14:26;15.60;99.90
57552;DHT22;43379;48.160;14.036;2023-08-31T02:16:51;15.60;99.90
57552;DHT22;43379;48.160;14.036;2023-08-31T02:19:17;15.60;99.90
57552;DHT22;43379;48.160;14.036;2023-08-31T02:21:42;15.60;99.90
57552;DHT22;43379;48.160;14.036;2023-08-31T02:24:08;15.60;99.90
57552;DHT22;43379;48.160;14.036;2023-08-31T02:26:35;15.60;99.90
57552;DHT22;43379;48.160;14.036;2023-08-31T02:29:03;15.60;99.90
57552;DHT22;43379;48.160;14.036;2023-08-31T02:31:29;15.60;99.90
57552;DHT22;43379;48.160;14.036;2023-08-31T02:33:54;15.70;99.90
57552;DHT22;43379;48.160;14.036;2023-08-31T02:36:20;15.70;99.90
57552;DHT22;43379;48.160;14.036;2023-08-31T02:38:46;15.70;99.90
57552;DHT22;43379;48.160;14.036;2023-08-31T02:41:12;15.70;99.90
57552;DHT22;43379;48.160;14.036;2023-08-31T02:43:38;15.70;99.90
57552;DHT22;43379;48.160;14.036;2023-08-31T02:46:05;15.80;99.90
57552;DHT22;43379;48.160;14.036;2023-08-31T02:48:32;15.70;99.90
57552;DHT22;43379;48.160;14.036;2023-08-31T02:50:58;15.80;99.90
57552;DHT22;43379;48.160;14.036;2023-08-31T02:53:29;15.80;99.90
57552;DHT22;43379;48.160;14.036;2023-08-31T02:55:55;15.80;99.90
57552;DHT22;43379;48.160;14.036;2023-08-31T02:58:21;15.90;99.90
57552;DHT22;43379;48.160;14.036;2023-08-31T03:00:46;15.80;99.90
57552;DHT22;43379;48.160;14.036;2023-08-31T03:03:16;15.80;99.90
57552;DHT22;43379;48.160;14.036;2023-08-31T03:05:43;15.80;99.90
57552;DHT22;43379;48.160;14.036;2023-08-31T03:08:09;15.80;99.90
57552;DHT22;43379;48.160;14.036;2023-08-31T03:10:36;15.80;99.90
57552;DHT22;43379;48.160;14.036;2023-08-31T03:13:01;15.80;99.90
57552;DHT22;43379;48.160;14.036;2023-08-31T03:15:27;15.80;99.90
57552;DHT22;43379;48.160;14.036;2023-08-31T03:17:53;15.80;99.90
57552;DHT22;43379;48.160;14.036;2023-08-31T03:20:19;15.80;99.90
57552;DHT22;43379;48.160;14.036;2023-08-31T03:22:44;15.80;99.90
57552;DHT22;43379;48.160;14.036;2023-08-31T03:25:10;15.80;99.90
57552;DHT22;43379;48.160;14.036;2023-08-31T03:27:35;15.80;99.90
57552;DHT22;43379;48.160;14.036;2023-08-31T03:30:02;15.90;99.90
57552;DHT22;43379;48.160;14.036;2023-08-31T03:32:28;15.80;99.90
57552;DHT22;43379;48.160;14.036;2023-08-31T03:34:54;15.80;99.90
57552;DHT22;43379;48.160;14.036;2023-08-31T03:37:20;15.80;99.90
57552;DHT22;43379;48.160;14.036;2023-08-31T03:39:48;15.90;99.90
57552;DHT22;43379;48.160;14.036;2023-08-31T03:42:13;15.90;99.90
57552;DHT22;43379;48.160;14.036;2023-08-31T03:44:39;15.90;99.90
57552;DHT22;43379;48.160;14.036;2023-08-31T03:47:05;15.80;99.90
57552;DHT22;43379;48.160;14.036;2023-08-31T03:49:31;15.80;99.90
57552;DHT22;43379;48.160;14.036;2023-08-31T03:51:57;15.80;99.90
57552;DHT22;43379;48.160;14.036;2023-08-31T03:54:23;15.80;99.90
57552;DHT22;43379;48.160;14.036;2023-08-31T03:56:49;15.80;99.90
57552;DHT22;43379;48.160;14.036;2023-08-31T03:59:15;15.80;99.90
57552;DHT22;43379;48.160;14.036;2023-08-31T04:01:41;15.80;99.90
57552;DHT22;43379;48.160;14.036;2023-08-31T04:04:07;15.80;99.90
57552;DHT22;43379;48.160;14.036;2023-08-31T04:06:32;15.80;99.90
57552;DHT22;43379;48.160;14.036;2023-08-31T04:08:58;15.70;99.90
57552;DHT22;43379;48.160;14.036;2023-08-31T04:11:25;15.70;99.90
57552;DHT22;43379;48.160;14.036;2023-08-31T04:13:51;15.70;99.90
57552;DHT22;43379;48.160;14.036;2023-08-31T04:16:17;15.70;99.90
57552;DHT22;43379;48.160;14.036;2023-08-31T04:18:43;15.70;99.90
57552;DHT22;43379;48.160;14.036;2023-08-31T04:21:08;15.70;99.90
57552;DHT22;43379;48.160;14.036;2023-08-31T04:23:34;15.70;99.90
57552;DHT22;43379;48.160;14.036;2023-08-31T04:25:59;15.60;99.90
57552;DHT22;43379;48.160;14.036;2023-08-31T04:28:25;15.60;99.90
57552;DHT22;43379;48.160;14.036;2023-08-31T04:30:51;15.60;99.90
57552;DHT22;43379;48.160;14.036;2023-08-31T04:33:18;15.60;99.90
57552;DHT22;43379;48.160;14.036;2023-08-31T04:35:43;15.60;99.90
57552;DHT22;43379;48.160;14.036;2023-08-31T04:38:09;15.60;99.90
57552;DHT22;43379;48.160;14.036;2023-08-31T04:40:35;15.60;99.90
57552;DHT22;43379;48.160;14.036;2023-08-31T04:43:02;15.60;99.90
57552;DHT22;43379;48.160;14.036;2023-08-31T04:45:28;15.60;99.90
57552;DHT22;43379;48.160;14.036;2023-08-31T04:47:54;15.70;99.90
57552;DHT22;43379;48.160;14.036;2023-08-31T04:50:19;15.70;99.90
57552;DHT22;43379;48.160;14.036;2023-08-31T04:52:45;15.70;99.90
57552;DHT22;43379;48.160;14.036;2023-08-31T04:55:13;15.60;99.90
57552;DHT22;43379;48.160;14.036;2023-08-31T04:57:39;15.70;99.90
57552;DHT22;43379;48.160;14.036;2023-08-31T05:00:05;15.70;99.90
57552;DHT22;43379;48.160;14.036;2023-08-31T05:02:34;15.70;99.90
57552;DHT22;43379;48.160;14.036;2023-08-31T05:05:00;15.80;99.90
57552;DHT22;43379;48.160;14.036;2023-08-31T05:07:25;15.80;99.90
57552;DHT22;43379;48.160;14.036;2023-08-31T05:09:51;15.90;99.90
57552;DHT22;43379;48.160;14.036;2023-08-31T05:12:17;16.00;99.90
57552;DHT22;43379;48.160;14.036;2023-08-31T05:14:43;16.00;99.90
57552;DHT22;43379;48.160;14.036;2023-08-31T05:17:08;16.00;99.90
57552;DHT22;43379;48.160;14.036;2023-08-31T05:19:34;16.20;99.90
57552;DHT22;43379;48.160;14.036;2023-08-31T05:22:00;16.20;99.90
57552;DHT22;43379;48.160;14.036;2023-08-31T05:24:26;16.20;99.90
57552;DHT22;43379;48.160;14.036;2023-08-31T05:26:51;16.20;99.90
57552;DHT22;43379;48.160;14.036;2023-08-31T05:29:17;16.20;99.90
57552;DHT22;43379;48.160;14.036;2023-08-31T05:31:43;16.20;99.90
57552;DHT22;43379;48.160;14.036;2023-08-31T05:34:16;16.30;99.90
57552;DHT22;43379;48.160;14.036;2023-08-31T05:36:43;16.30;99.90
57552;DHT22;43379;48.160;14.036;2023-08-31T05:39:08;16.30;99.90
57552;DHT22;43379;48.160;14.036;2023-08-31T05:41:35;16.30;99.90
57552;DHT22;43379;48.160;14.036;2023-08-31T05:44:01;16.30;99.90
57552;DHT22;43379;48.160;14.036;2023-08-31T05:46:27;16.40;99.90
57552;DHT22;43379;48.160;14.036;2023-08-31T05:48:52;16.40;99.90
57552;DHT22;43379;48.160;14.036;2023-08-31T05:51:18;16.40;99.90
57552;DHT22;43379;48.160;14.036;2023-08-31T05:53:44;16.50;99.90
57552;DHT22;43379;48.160;14.036;2023-08-31T05:56:09;16.50;99.90
57552;DHT22;43379;48.160;14.036;2023-08-31T05:58:36;16.50;99.90
57552;DHT22;43379;48.160;14.036;2023-08-31T06:01:05;16.50;99.90
57552;DHT22;43379;48.160;14.036;2023-08-31T06:03:31;16.60;99.90
57552;DHT22;43379;48.160;14.036;2023-08-31T06:05:57;16.60;99.90
57552;DHT22;43379;48.160;14.036;2023-08-31T06:08:24;16.60;99.90
57552;DHT22;43379;48.160;14.036;2023-08-31T06:10:50;16.70;99.90
57552;DHT22;43379;48.160;14.036;2023-08-31T06:13:15;16.70;99.90
57552;DHT22;43379;48.160;14.036;2023-08-31T06:15:41;16.80;99.90
57552;DHT22;43379;48.160;14.036;2023-08-31T06:18:07;16.80;99.90
57552;DHT22;43379;48.160;14.036;2023-08-31T06:20:32;16.80;99.90
57552;DHT22;43379;48.160;14.036;2023-08-31T06:23:02;16.80;99.90
57552;DHT22;43379;48.160;14.036;2023-08-31T06:25:28;16.80;99.90
57552;DHT22;43379;48.160;14.036;2023-08-31T06:27:53;16.80;99.90
57552;DHT22;43379;48.160;14.036;2023-08-31T06:30:19;17.00;99.90
57552;DHT22;43379;48.160;14.036;2023-08-31T06:32:46;17.20;99.90
57552;DHT22;43379;48.160;14.036;2023-08-31T06:35:12;17.40;99.90
57552;DHT22;43379;48.160;14.036;2023-08-31T06:37:39;17.40;99.90
57552;DHT22;43379;48.160;14.036;2023-08-31T06:40:06;17.40;99.90
57552;DHT22;43379;48.160;14.036;2023-08-31T06:42:34;17.40;99.90
57552;DHT22;43379;48.160;14.036;2023-08-31T06:45:00;17.40;99.90
57552;DHT22;43379;48.160;14.036;2023-08-31T06:47:26;17.50;99.90
57552;DHT22;43379;48.160;14.036;2023-08-31T06:49:51;17.50;99.90
57552;DHT22;43379;48.160;14.036;2023-08-31T06:52:18;17.50;99.90
57552;DHT22;43379;48.160;14.036;2023-08-31T06:54:44;17.50;99.90
57552;DHT22;43379;48.160;14.036;2023-08-31T06:57:09;17.50;99.90
57552;DHT22;43379;48.160;14.036;2023-08-31T06:59:35;17.40;99.90
57552;DHT22;43379;48.160;14.036;2023-08-31T07:02:00;17.40;99.90
57552;DHT22;43379;48.160;14.036;2023-08-31T07:04:27;17.40;99.90
57552;DHT22;43379;48.160;14.036;2023-08-31T07:06:53;17.50;99.90
57552;DHT22;43379;48.160;14.036;2023-08-31T07:09:18;17.50;99.90
57552;DHT22;43379;48.160;14.036;2023-08-31T07:11:44;17.50;99.90
57552;DHT22;43379;48.160;14.036;2023-08-31T07:14:09;17.70;99.90
57552;DHT22;43379;48.160;14.036;2023-08-31T07:16:35;17.80;99.90
57552;DHT22;43379;48.160;14.036;2023-08-31T07:19:01;18.00;99.90
57552;DHT22;43379;48.160;14.036;2023-08-31T07:21:28;18.50;99.90
57552;DHT22;43379;48.160;14.036;2023-08-31T07:23:53;19.40;99.90
57552;DHT22;43379;48.160;14.036;2023-08-31T07:26:20;20.70;99.90
57552;DHT22;43379;48.160;14.036;2023-08-31T07:28:46;21.90;99.90
57552;DHT22;43379;48.160;14.036;2023-08-31T07:31:12;22.90;99.90
57552;DHT22;43379;48.160;14.036;2023-08-31T07:33:38;24.00;99.90
57552;DHT22;43379;48.160;14.036;2023-08-31T07:36:04;24.70;99.90
57552;DHT22;43379;48.160;14.036;2023-08-31T07:38:32;25.30;99.90
57552;DHT22;43379;48.160;14.036;2023-08-31T07:40:58;26.10;99.90
57552;DHT22;43379;48.160;14.036;2023-08-31T07:43:25;26.50;99.90
57552;DHT22;43379;48.160;14.036;2023-08-31T07:45:52;27.00;99.90
57552;DHT22;43379;48.160;14.036;2023-08-31T07:48:18;27.30;99.90
57552;DHT22;43379;48.160;14.036;2023-08-31T07:50:43;27.70;99.90
57552;DHT22;43379;48.160;14.036;2023-08-31T07:53:10;27.90;99.90
57552;DHT22;43379;48.160;14.036;2023-08-31T07:55:36;28.00;99.90
57552;DHT22;43379;48.160;14.036;2023-08-31T07:58:01;27.90;99.70
57552;DHT22;43379;48.160;14.036;2023-08-31T08:00:27;27.50;99.00
57552;DHT22;43379;48.160;14.036;2023-08-31T08:02:53;26.80;99.80
57552;DHT22;43379;48.160;14.036;2023-08-31T08:05:18;26.50;99.90
57552;DHT22;43379;48.160;14.036;2023-08-31T08:07:44;26.10;99.90
57552;DHT22;43379;48.160;14.036;2023-08-31T08:10:11;26.10;99.90
57552;DHT22;43379;48.160;14.036;2023-08-31T08:12:41;25.70;99.90
57552;DHT22;43379;48.160;14.036;2023-08-31T08:15:10;25.40;99.90
57552;DHT22;43379;48.160;14.036;2023-08-31T08:17:36;25.20;99.90
57552;DHT22;43379;48.160;14.036;2023-08-31T08:20:03;24.90;99.90
57552;DHT22;43379;48.160;14.036;2023-08-31T08:22:29;24.80;99.90
57552;DHT22;43379;48.160;14.036;2023-08-31T08:24:54;25.00;99.90
57552;DHT22;43379;48.160;14.036;2023-08-31T08:27:20;25.20;99.90
57552;DHT22;43379;48.160;14.036;2023-08-31T08:29:46;25.20;99.90
57552;DHT22;43379;48.160;14.036;2023-08-31T08:32:12;24.90;99.90
57552;DHT22;43379;48.160;14.036;2023-08-31T08:34:38;24.50;99.90
57552;DHT22;43379;48.160;14.036;2023-08-31T08:37:04;24.10;99.90
57552;DHT22;43379;48.160;14.036;2023-08-31T08:39:30;23.90;99.90
57552;DHT22;43379;48.160;14.036;2023-08-31T08:41:58;23.50;99.90
57552;DHT22;43379;48.160;14.036;2023-08-31T08:44:25;23.00;99.90
57552;DHT22;43379;48.160;14.036;2023-08-31T08:46:52;22.60;99.90
57552;DHT22;43379;48.160;14.036;2023-08-31T08:49:18;22.20;99.90
57552;DHT22;43379;48.160;14.036;2023-08-31T08:51:48;22.00;99.90
57552;DHT22;43379;48.160;14.036;2023-08-31T08:54:17;21.90;99.90
57552;DHT22;43379;48.160;14.036;2023-08-31T08:56:43;22.00;99.90
57552;DHT22;43379;48.160;14.036;2023-08-31T08:59:09;21.80;99.90
57552;DHT22;43379;48.160;14.036;2023-08-31T09:01:39;21.60;99.90
57552;DHT22;43379;48.160;14.036;2023-08-31T09:04:05;21.40;99.90
57552;DHT22;43379;48.160;14.036;2023-08-31T09:06:32;21.30;99.90
57552;DHT22;43379;48.160;14.036;2023-08-31T09:08:57;21.30;99.90
57552;DHT22;43379;48.160;14.036;2023-08-31T09:11:24;21.30;99.90
57552;DHT22;43379;48.160;14.036;2023-08-31T09:13:51;21.30;99.90
57552;DHT22;43379;48.160;14.036;2023-08-31T09:16:27;21.20;99.90
57552;DHT22;43379;48.160;14.036;2023-08-31T09:18:54;21.00;99.90
57552;DHT22;43379;48.160;14.036;2023-08-31T09:21:21;20.90;99.90
57552;DHT22;43379;48.160;14.036;2023-08-31T09:23:56;20.90;99.90
57552;DHT22;43379;48.160;14.036;2023-08-31T09:26:25;20.80;99.90
57552;DHT22;43379;48.160;14.036;2023-08-31T09:28:51;20.70;99.90
57552;DHT22;43379;48.160;14.036;2023-08-31T09:31:17;20.60;99.90
57552;DHT22;43379;48.160;14.036;2023-08-31T09:33:52;20.50;99.90
57552;DHT22;43379;48.160;14.036;2023-08-31T09:36:20;20.50;99.90
57552;DHT22;43379;48.160;14.036;2023-08-31T09:38:46;20.50;99.90
57552;DHT22;43379;48.160;14.036;2023-08-31T09:41:12;20.90;99.90
57552;DHT22;43379;48.160;14.036;2023-08-31T09:43:38;21.20;99.90
57552;DHT22;43379;48.160;14.036;2023-08-31T09:46:04;21.30;99.90
57552;DHT22;43379;48.160;14.036;2023-08-31T09:48:30;21.40;99.90
57552;DHT22;43379;48.160;14.036;2023-08-31T09:50:57;21.30;99.90
57552;DHT22;43379;48.160;14.036;2023-08-31T09:53:27;21.30;99.90
57552;DHT22;43379;48.160;14.036;2023-08-31T09:55:54;21.20;99.90
57552;DHT22;43379;48.160;14.036;2023-08-31T09:58:22;21.00;99.90
57552;DHT22;43379;48.160;14.036;2023-08-31T10:00:52;21.00;99.90
57552;DHT22;43379;48.160;14.036;2023-08-31T10:03:18;20.90;99.90
57552;DHT22;43379;48.160;14.036;2023-08-31T10:05:49;20.90;99.90
57552;DHT22;43379;48.160;14.036;2023-08-31T10:08:15;20.90;99.90
57552;DHT22;43379;48.160;14.036;2023-08-31T10:10:41;20.80;99.90
57552;DHT22;43379;48.160;14.036;2023-08-31T10:13:07;20.70;99.90
57552;DHT22;43379;48.160;14.036;2023-08-31T10:15:35;20.60;99.90
57552;DHT22;43379;48.160;14.036;2023-08-31T10:18:02;20.40;99.90
57552;DHT22;43379;48.160;14.036;2023-08-31T10:20:29;20.30;99.90
57552;DHT22;43379;48.160;14.036;2023-08-31T10:22:58;20.20;99.90
57552;DHT22;43379;48.160;14.036;2023-08-31T10:25:24;20.20;99.90
57552;DHT22;43379;48.160;14.036;2023-08-31T10:27:52;20.20;99.90
57552;DHT22;43379;48.160;14.036;2023-08-31T10:30:25;20.10;99.90
57552;DHT22;43379;48.160;14.036;2023-08-31T10:38:14;19.60;99.90
57552;DHT22;43379;48.160;14.036;2023-08-31T10:40:40;19.60;99.90
57552;DHT22;43379;48.160;14.036;2023-08-31T10:43:15;19.50;99.90
57552;DHT22;43379;48.160;14.036;2023-08-31T10:45:45;19.60;99.90
57552;DHT22;43379;48.160;14.036;2023-08-31T10:48:10;19.60;99.90
57552;DHT22;43379;48.160;14.036;2023-08-31T10:50:42;19.70;99.90
57552;DHT22;43379;48.160;14.036;2023-08-31T10:53:11;19.80;99.90
57552;DHT22;43379;48.160;14.036;2023-08-31T10:55:52;19.80;99.90
57552;DHT22;43379;48.160;14.036;2023-08-31T10:58:21;19.70;99.90
57552;DHT22;43379;48.160;14.036;2023-08-31T11:00:56;19.70;99.90
57552;DHT22;43379;48.160;14.036;2023-08-31T11:03:22;19.70;99.90
57552;DHT22;43379;48.160;14.036;2023-08-31T11:05:54;19.50;99.90
57552;DHT22;43379;48.160;14.036;2023-08-31T11:08:24;19.50;99.90
57552;DHT22;43379;48.160;14.036;2023-08-31T11:10:50;19.50;99.90
57552;DHT22;43379;48.160;14.036;2023-08-31T11:13:18;19.40;99.90
57552;DHT22;43379;48.160;14.036;2023-08-31T11:15:47;19.60;99.90
57552;DHT22;43379;48.160;14.036;2023-08-31T11:18:13;19.60;99.90
57552;DHT22;43379;48.160;14.036;2023-08-31T11:20:43;19.70;99.90
57552;DHT22;43379;48.160;14.036;2023-08-31T11:23:09;19.80;99.90
57552;DHT22;43379;48.160;14.036;2023-08-31T11:25:35;20.00;99.90
57552;DHT22;43379;48.160;14.036;2023-08-31T11:28:06;20.30;99.90
57552;DHT22;43379;48.160;14.036;2023-08-31T11:30:35;20.70;99.90
57552;DHT22;43379;48.160;14.036;2023-08-31T11:33:08;21.10;99.90
57552;DHT22;43379;48.160;14.036;2023-08-31T11:35:38;21.50;99.90
57552;DHT22;43379;48.160;14.036;2023-08-31T11:38:06;21.80;99.90
57552;DHT22;43379;48.160;14.036;2023-08-31T11:40:32;22.00;99.90
57552;DHT22;43379;48.160;14.036;2023-08-31T11:42:58;22.00;99.90
57552;DHT22;43379;48.160;14.036;2023-08-31T11:45:26;22.00;99.90
57552;DHT22;43379;48.160;14.036;2023-08-31T11:47:53;22.20;99.90
57552;DHT22;43379;48.160;14.036;2023-08-31T11:50:20;22.30;99.90
57552;DHT22;43379;48.160;14.036;2023-08-31T11:52:47;22.40;99.90
57552;DHT22;43379;48.160;14.036;2023-08-31T11:55:15;22.30;99.90
57552;DHT22;43379;48.160;14.036;2023-08-31T11:57:51;22.30;99.90
57552;DHT22;43379;48.160;14.036;2023-08-31T12:00:18;22.40;99.90
57552;DHT22;43379;48.160;14.036;2023-08-31T12:02:45;22.50;99.90
57552;DHT22;43379;48.160;14.036;2023-08-31T12:05:14;22.30;99.90
57552;DHT22;43379;48.160;14.036;2023-08-31T12:07:40;22.30;99.90
57552;DHT22;43379;48.160;14.036;2023-08-31T12:10:08;22.20;99.90
57552;DHT22;43379;48.160;14.036;2023-08-31T12:12:34;22.20;99.90
57552;DHT22;43379;48.160;14.036;2023-08-31T12:15:02;22.20;99.90
57552;DHT22;43379;48.160;14.036;2023-08-31T12:17:29;22.20;99.90
57552;DHT22;43379;48.160;14.036;2023-08-31T12:20:05;22.40;99.90
57552;DHT22;43379;48.160;14.036;2023-08-31T12:22:33;22.40;99.90
57552;DHT22;43379;48.160;14.036;2023-08-31T12:24:58;22.40;99.90
57552;DHT22;43379;48.160;14.036;2023-08-31T12:27:24;22.40;99.90
57552;DHT22;43379;48.160;14.036;2023-08-31T12:29:50;22.30;99.90
57552;DHT22;43379;48.160;14.036;2023-08-31T12:32:16;22.20;99.90
57552;DHT22;43379;48.160;14.036;2023-08-31T12:34:43;22.20;99.90
57552;DHT22;43379;48.160;14.036;2023-08-31T12:37:09;22.20;99.90
57552;DHT22;43379;48.160;14.036;2023-08-31T12:39:34;22.40;99.90
57552;DHT22;43379;48.160;14.036;2023-08-31T12:42:00;22.40;99.90
57552;DHT22;43379;48.160;14.036;2023-08-31T12:44:26;22.30;99.90
57552;DHT22;43379;48.160;14.036;2023-08-31T12:46:52;22.40;99.90
57552;DHT22;43379;48.160;14.036;2023-08-31T12:49:18;22.50;99.90
57552;DHT22;43379;48.160;14.036;2023-08-31T12:51:45;22.50;99.90
57552;DHT22;43379;48.160;14.036;2023-08-31T12:54:11;22.50;99.90
57552;DHT22;43379;48.160;14.036;2023-08-31T12:56:37;22.40;99.90
57552;DHT22;43379;48.160;14.036;2023-08-31T12:59:03;22.50;99.90
57552;DHT22;43379;48.160;14.036;2023-08-31T13:01:31;22.60;99.90
57552;DHT22;43379;48.160;14.036;2023-08-31T13:03:58;22.70;99.90
57552;DHT22;43379;48.160;14.036;2023-08-31T13:06:24;22.60;99.90
57552;DHT22;43379;48.160;14.036;2023-08-31T13:08:50;22.60;99.90
57552;DHT22;43379;48.160;14.036;2023-08-31T13:11:16;22.50;99.90
57552;DHT22;43379;48.160;14.036;2023-08-31T13:13:44;22.50;99.90
57552;DHT22;43379;48.160;14.036;2023-08-31T13:16:10;22.50;99.90
57552;DHT22;43379;48.160;14.036;2023-08-31T13:18:35;22.40;99.90
57552;DHT22;43379;48.160;14.036;2023-08-31T13:21:01;22.40;99.90
57552;DHT22;43379;48.160;14.036;2023-08-31T13:23:28;22.50;99.90
57552;DHT22;43379;48.160;14.036;2023-08-31T13:25:54;22.60;99.90
57552;DHT22;43379;48.160;14.036;2023-08-31T13:28:21;22.50;99.90
57552;DHT22;43379;48.160;14.036;2023-08-31T13:30:47;22.60;99.90
57552;DHT22;43379;48.160;14.036;2023-08-31T13:33:13;22.60;99.90
57552;DHT22;43379;48.160;14.036;2023-08-31T13:35:39;22.60;99.90
57552;DHT22;43379;48.160;14.036;2023-08-31T13:38:04;22.70;99.90
57552;DHT22;43379;48.160;14.036;2023-08-31T13:40:30;22.70;99.90
57552;DHT22;43379;48.160;14.036;2023-08-31T13:42:57;22.70;99.90
57552;DHT22;43379;48.160;14.036;2023-08-31T13:45:26;22.60;99.90
57552;DHT22;43379;48.160;14.036;2023-08-31T13:47:52;22.60;99.90
57552;DHT22;43379;48.160;14.036;2023-08-31T13:50:18;22.40;99.90
57552;DHT22;43379;48.160;14.036;2023-08-31T13:52:44;22.40;99.90
57552;DHT22;43379;48.160;14.036;2023-08-31T13:55:10;22.50;99.90
57552;DHT22;43379;48.160;14.036;2023-08-31T13:57:36;22.50;99.90
57552;DHT22;43379;48.160;14.036;2023-08-31T14:00:02;22.50;99.90
57552;DHT22;43379;48.160;14.036;2023-08-31T14:02:30;22.50;99.90
57552;DHT22;43379;48.160;14.036;2023-08-31T14:04:56;22.50;99.90
57552;DHT22;43379;48.160;14.036;2023-08-31T14:07:22;22.50;99.90
57552;DHT22;43379;48.160;14.036;2023-08-31T14:09:48;22.50;99.90
57552;DHT22;43379;48.160;14.036;2023-08-31T14:12:13;22.40;99.90
57552;DHT22;43379;48.160;14.036;2023-08-31T14:14:39;22.30;99.90
57552;DHT22;43379;48.160;14.036;2023-08-31T14:17:06;22.30;99.90
57552;DHT22;43379;48.160;14.036;2023-08-31T14:19:33;22.40;99.90
57552;DHT22;43379;48.160;14.036;2023-08-31T14:22:01;22.40;99.90
57552;DHT22;43379;48.160;14.036;2023-08-31T14:24:29;22.40;99.90
57552;DHT22;43379;48.160;14.036;2023-08-31T14:26:54;22.30;99.90
57552;DHT22;43379;48.160;14.036;2023-08-31T14:29:20;22.20;99.90
57552;DHT22;43379;48.160;14.036;2023-08-31T14:31:46;22.00;99.90
57552;DHT22;43379;48.160;14.036;2023-08-31T14:34:11;21.90;99.90
57552;DHT22;43379;48.160;14.036;2023-08-31T14:36:37;21.80;99.90
57552;DHT22;43379;48.160;14.036;2023-08-31T14:39:03;21.70;99.90
57552;DHT22;43379;48.160;14.036;2023-08-31T14:41:30;21.60;99.90
57552;DHT22;43379;48.160;14.036;2023-08-31T14:43:56;21.60;99.90
57552;DHT22;43379;48.160;14.036;2023-08-31T14:46:22;21.50;99.90
57552;DHT22;43379;48.160;14.036;2023-08-31T14:48:49;21.50;99.90
57552;DHT22;43379;48.160;14.036;2023-08-31T14:51:16;21.50;99.90
57552;DHT22;43379;48.160;14.036;2023-08-31T14:53:42;21.50;99.90
57552;DHT22;43379;48.160;14.036;2023-08-31T14:56:07;21.40;99.90
57552;DHT22;43379;48.160;14.036;2023-08-31T14:58:33;21.40;99.90
57552;DHT22;43379;48.160;14.036;2023-08-31T15:00:59;21.40;99.90
57552;DHT22;43379;48.160;14.036;2023-08-31T15:03:24;21.40;99.90
57552;DHT22;43379;48.160;14.036;2023-08-31T15:05:50;21.40;99.90
57552;DHT22;43379;48.160;14.036;2023-08-31T15:08:16;21.40;99.90
57552;DHT22;43379;48.160;14.036;2023-08-31T15:10:42;21.30;99.90
57552;DHT22;43379;48.160;14.036;2023-08-31T15:13:08;21.30;99.90
57552;DHT22;43379;48.160;14.036;2023-08-31T15:15:33;21.20;99.90
57552;DHT22;43379;48.160;14.036;2023-08-31T15:17:59;21.20;99.90
57552;DHT22;43379;48.160;14.036;2023-08-31T15:20:25;21.10;99.90
57552;DHT22;43379;48.160;14.036;2023-08-31T15:22:51;21.10;99.90
57552;DHT22;43379;48.160;14.036;2023-08-31T15:25:16;21.00;99.90